This is the latest recevied weather packets stored in our database for station/object KC3SPD-13. If no packets are shown the sender has not sent any weather packets the latest 10 day(s).
| Time | Temp. | Humidity | Pressure | Rain* | Wind** | Luminosity | Snow |
|---|---|---|---|---|---|---|---|
| 1777667104 | 16.11° C | 43% | 961.7 hPa | 0 mm | - | 0 W/m² | - |
| 1777665004 | 16.11° C | 46% | 961.8 hPa | 0 mm | - | 0 W/m² | - |
| 1777663204 | 17.78° C | 42% | 962 hPa | 0 mm | - | 0 W/m² | - |
| 1777660804 | 17.78° C | 43% | 962.5 hPa | 0 mm | - | 0 W/m² | - |
| 1777657204 | 16.67° C | 44% | 963.1 hPa | 0 mm | - | 0 W/m² | - |
| 1777655704 | 15.56° C | 45% | 963.6 hPa | 0 mm | - | 0 W/m² | - |
| 1777647004 | 10° C | 75% | 964.7 hPa | 0 mm | - | 0 W/m² | - |
| 1777644904 | 8.89° C | 80% | 964.6 hPa | 0 mm | - | 0 W/m² | - |
| 1777644604 | 8.33° C | 80% | 964.8 hPa | 0 mm | - | 0 W/m² | - |
| 1777643704 | 7.22° C | 84% | 965.1 hPa | 0 mm | - | 0 W/m² | - |
| 1777642804 | 6.67° C | 88% | 965.1 hPa | 0 mm | - | 0 W/m² | - |
| 1777642504 | 6.67° C | 88% | 965.1 hPa | 0 mm | - | 0 W/m² | - |
| 1777642205 | 6.67° C | 88% | 965.2 hPa | 0 mm | - | 0 W/m² | - |
| 1777641004 | 5.56° C | 92% | 965.2 hPa | 0 mm | - | 0 W/m² | - |
| 1777638605 | 3.33° C | 96% | 965.8 hPa | 0 mm | - | 291 W/m² | - |
| 1777636804 | 2.22° C | 99% | 966.1 hPa | 0 mm | - | 147 W/m² | - |
| 1777630804 | 1.67° C | 100% | 966.1 hPa | 0 mm | - | 5 W/m² | - |
| 1777630504 | 1.67° C | 99% | 966.1 hPa | 0 mm | - | 2 W/m² | - |
| 1777630203 | 1.67° C | 99% | 966.2 hPa | 0 mm | - | 2 W/m² | - |
| 1777627204 | 1.67° C | 98% | 966.1 hPa | 0 mm | - | 0 W/m² | - |
| 1777626604 | 1.67° C | 98% | 966.3 hPa | 0 mm | - | 0 W/m² | - |
| 1777625404 | 2.22° C | 97% | 966 hPa | 0 mm | - | 0 W/m² | - |
| 1777624504 | 2.22° C | 97% | 966 hPa | 0 mm | - | 0 W/m² | - |
| 1777623004 | 2.78° C | 94% | 966 hPa | 0 mm | - | 0 W/m² | - |
| 1777620604 | 3.89° C | 90% | 965.8 hPa | 0 mm | - | 0 W/m² | - |
* Rain latest hour (hover to see other rain measurements)
** Current wind speed in m/s (hover to see current wind gust speed)